Time;durP1;ratioP1;P1;durP2;ratioP2;P2;SDS_P1;SDS_P2;PMS_P1;PMS_P2;Temp;Humidity;BMP_temperature;BMP_pressure;BME280_temperature;BME280_humidity;BME280_pressure;Samples;Min_cycle;Max_cycle;Signal;HPM_P1;HPM_P2
2022/09/04 00:02:57;;;;;;;0.40;0.40;;;15.50;93.90;;;;;;5093760;28;20195;-65
2022/09/04 00:05:51;;;;;;;0.40;0.40;;;15.50;94.10;;;;;;5093206;28;20754;-63
2022/09/04 00:08:53;;;;;;;0.50;0.50;;;15.40;94.10;;;;;;5094327;28;20211;-66
2022/09/04 00:11:50;;;;;;;0.50;0.50;;;15.30;94.50;;;;;;5094571;28;20698;-66
2022/09/04 00:14:45;;;;;;;0.40;0.40;;;15.30;94.60;;;;;;5094721;28;20200;-66
2022/09/04 00:17:38;;;;;;;0.60;0.60;;;15.20;94.70;;;;;;5094461;28;20192;-65
2022/09/04 00:20:33;;;;;;;0.50;0.50;;;15.30;94.60;;;;;;5093440;28;20196;-65
2022/09/04 00:23:27;;;;;;;0.40;0.40;;;15.30;94.70;;;;;;5094297;28;20188;-66
2022/09/04 00:26:27;;;;;;;0.40;0.40;;;15.20;94.80;;;;;;5094165;28;20700;-66
2022/09/04 00:29:24;;;;;;;1.10;1.10;;;15.20;95.00;;;;;;5094447;28;20242;-68
2022/09/04 00:32:19;;;;;;;0.40;0.40;;;15.20;95.10;;;;;;5094553;28;20220;-65
2022/09/04 00:35:13;;;;;;;0.40;0.40;;;15.10;95.10;;;;;;5094712;28;20200;-67
2022/09/04 00:38:03;;;;;;;0.40;0.40;;;15.00;95.30;;;;;;5094864;28;20676;-65
2022/09/04 00:41:03;;;;;;;0.40;0.40;;;15.00;95.60;;;;;;5093877;28;20200;-70
2022/09/04 00:44:07;;;;;;;0.40;0.40;;;15.10;95.60;;;;;;5094076;28;20201;-66
2022/09/04 00:47:26;;;;;;;0.40;0.40;;;15.10;95.70;;;;;;5094135;28;20246;-66
2022/09/04 00:50:39;;;;;;;0.40;0.40;;;15.00;95.80;;;;;;5093855;28;20200;-66
2022/09/04 00:54:15;;;;;;;0.50;0.50;;;15.00;96.10;;;;;;5094153;28;20192;-66
2022/09/04 00:57:28;;;;;;;0.40;0.40;;;15.00;96.10;;;;;;5093752;28;20231;-66
2022/09/04 01:00:19;;;;;;;0.40;0.40;;;15.00;96.40;;;;;;5093574;28;20207;-66
2022/09/04 01:03:35;;;;;;;0.43;0.43;;;15.00;96.60;;;;;;5093618;28;20246;-65
2022/09/04 01:06:41;;;;;;;0.43;0.43;;;14.90;96.50;;;;;;5096653;28;20228;-66
2022/09/04 01:09:46;;;;;;;0.50;0.50;;;14.90;97.00;;;;;;5097434;28;20204;-67
2022/09/04 01:12:40;;;;;;;0.40;0.40;;;14.80;97.30;;;;;;5097399;28;20276;-66
2022/09/04 01:15:37;;;;;;;0.40;0.40;;;14.80;97.50;;;;;;5096794;28;20704;-66
2022/09/04 01:18:32;;;;;;;0.50;0.50;;;14.70;97.60;;;;;;5097228;28;20196;-65
2022/09/04 01:21:57;;;;;;;0.50;0.50;;;14.70;98.00;;;;;;5077250;28;20583;-65
2022/09/04 01:24:59;;;;;;;0.40;0.40;;;14.70;98.60;;;;;;5077046;28;20427;-66
2022/09/04 01:27:56;;;;;;;1.10;1.10;;;14.60;98.80;;;;;;5091787;28;20204;-65
2022/09/04 01:30:50;;;;;;;0.50;0.50;;;14.60;99.00;;;;;;5075571;28;20419;-66
2022/09/04 01:33:45;;;;;;;0.40;0.40;;;14.60;99.20;;;;;;5075937;28;20459;-66
2022/09/04 01:36:41;;;;;;;0.50;0.50;;;14.60;99.50;;;;;;5075624;28;20636;-65
2022/09/04 01:39:33;;;;;;;0.50;0.50;;;14.60;99.60;;;;;;5075715;28;20247;-65
2022/09/04 01:42:33;;;;;;;0.50;0.50;;;14.60;99.70;;;;;;5075205;28;20196;-65
2022/09/04 01:45:33;;;;;;;0.40;0.40;;;14.50;99.90;;;;;;5074900;28;20212;-66
2022/09/04 01:48:32;;;;;;;0.53;0.53;;;14.50;99.90;;;;;;5075459;28;20723;-65
2022/09/04 01:51:28;;;;;;;0.40;0.40;;;14.50;99.90;;;;;;5084961;28;20479;-66
2022/09/04 01:54:30;;;;;;;0.40;0.40;;;14.50;99.90;;;;;;5096490;28;20196;-66
2022/09/04 01:57:31;;;;;;;0.40;0.40;;;14.50;99.90;;;;;;5096205;28;20235;-65
2022/09/04 02:00:22;;;;;;;0.40;0.40;;;14.50;99.90;;;;;;5095644;28;20577;-66
2022/09/04 02:03:21;;;;;;;0.50;0.50;;;14.50;99.90;;;;;;5095482;28;20753;-68
2022/09/04 02:06:21;;;;;;;0.40;0.40;;;14.50;99.90;;;;;;5095932;28;20897;-66
2022/09/04 02:09:26;;;;;;;0.50;0.50;;;14.50;99.90;;;;;;5093926;28;20480;-66
2022/09/04 02:12:26;;;;;;;0.40;0.40;;;14.50;99.90;;;;;;5094235;28;20269;-66
2022/09/04 02:15:30;;;;;;;0.40;0.40;;;14.40;99.90;;;;;;5094818;28;20688;-65
2022/09/04 02:18:34;;;;;;;0.40;0.40;;;14.40;99.90;;;;;;5094913;28;20480;-66
2022/09/04 02:21:32;;;;;;;0.40;0.40;;;14.40;99.90;;;;;;5095632;28;20210;-65
2022/09/04 02:24:30;;;;;;;0.50;0.50;;;14.30;99.90;;;;;;5095806;28;20196;-65
2022/09/04 02:27:26;;;;;;;0.60;0.60;;;14.40;99.90;;;;;;5095120;28;20997;-66
2022/09/04 02:30:17;;;;;;;0.57;0.57;;;14.40;99.90;;;;;;5094439;28;20196;-67
2022/09/04 02:33:14;;;;;;;0.40;0.40;;;14.30;99.90;;;;;;5096073;28;20219;-67
2022/09/04 02:36:10;;;;;;;0.40;0.40;;;14.30;99.90;;;;;;5096217;28;20727;-66
2022/09/04 02:39:07;;;;;;;2.40;2.20;;;14.20;99.90;;;;;;5095475;28;20429;-66
2022/09/04 02:42:07;;;;;;;0.83;0.83;;;14.20;99.90;;;;;;5093832;28;20207;-67
2022/09/04 02:45:09;;;;;;;4.63;4.33;;;14.20;99.90;;;;;;5095401;28;20207;-66
2022/09/04 02:48:04;;;;;;;0.50;0.50;;;14.20;99.90;;;;;;5094595;28;20225;-67
2022/09/04 02:51:13;;;;;;;0.50;0.50;;;14.10;99.90;;;;;;5095422;28;20458;-67
2022/09/04 02:54:09;;;;;;;0.50;0.50;;;14.10;99.90;;;;;;5087389;28;20219;-65
2022/09/04 02:57:06;;;;;;;0.50;0.50;;;14.10;99.90;;;;;;5093116;28;20461;-66
2022/09/04 03:00:05;;;;;;;0.50;0.50;;;14.10;99.90;;;;;;5093345;28;20777;-66
2022/09/04 03:03:00;;;;;;;0.50;0.50;;;14.00;99.90;;;;;;5093831;28;20418;-65
2022/09/04 03:05:56;;;;;;;0.50;0.50;;;14.00;99.90;;;;;;5093748;28;21012;-67
2022/09/04 03:08:49;;;;;;;0.83;0.83;;;14.00;99.90;;;;;;5092840;28;20450;-66
2022/09/04 03:11:45;;;;;;;0.40;0.40;;;14.00;99.90;;;;;;5093388;28;20430;-66
2022/09/04 03:14:39;;;;;;;0.50;0.50;;;13.90;99.90;;;;;;5093657;28;20791;-65
2022/09/04 03:17:33;;;;;;;0.50;0.50;;;13.90;99.90;;;;;;5093184;28;20220;-66
2022/09/04 03:20:23;;;;;;;0.43;0.43;;;13.90;99.90;;;;;;5092517;28;20418;-66
2022/09/04 03:23:19;;;;;;;0.50;0.50;;;13.80;99.90;;;;;;5092834;28;20784;-65
2022/09/04 03:26:23;;;;;;;0.50;0.50;;;13.80;99.90;;;;;;5092583;28;20446;-66
2022/09/04 03:29:23;;;;;;;0.50;0.50;;;13.80;99.90;;;;;;5093571;28;20421;-66
2022/09/04 03:32:20;;;;;;;0.50;0.50;;;13.80;99.90;;;;;;5093192;28;20453;-65
2022/09/04 03:35:18;;;;;;;8.23;2.37;;;13.80;99.90;;;;;;5093511;28;20415;-66
2022/09/04 03:38:17;;;;;;;0.40;0.40;;;13.80;99.90;;;;;;5092499;28;20433;-66
2022/09/04 03:41:15;;;;;;;0.50;0.50;;;13.80;99.90;;;;;;5093588;28;20428;-67
2022/09/04 03:44:13;;;;;;;0.50;0.50;;;13.80;99.90;;;;;;5093028;28;20431;-66
2022/09/04 03:47:08;;;;;;;0.50;0.50;;;13.80;99.90;;;;;;5092529;28;20449;-66
2022/09/04 03:50:07;;;;;;;0.40;0.40;;;13.80;99.90;;;;;;5093672;28;20192;-65
2022/09/04 03:53:05;;;;;;;0.50;0.50;;;13.80;99.90;;;;;;5072557;28;20462;-67
2022/09/04 03:56:30;;;;;;;0.40;0.40;;;13.70;99.90;;;;;;5072946;28;20459;-66
2022/09/04 03:59:36;;;;;;;0.50;0.50;;;13.70;99.90;;;;;;5071510;28;20423;-67
2022/09/04 04:02:35;;;;;;;0.50;0.50;;;13.60;99.90;;;;;;5073058;28;20197;-66
2022/09/04 04:05:37;;;;;;;0.40;0.40;;;13.60;99.90;;;;;;5072737;28;20482;-65
2022/09/04 04:08:36;;;;;;;0.50;0.50;;;13.60;99.90;;;;;;5072131;28;20422;-65
2022/09/04 04:11:44;;;;;;;0.47;0.47;;;13.70;99.90;;;;;;5071046;28;20423;-65
2022/09/04 04:14:45;;;;;;;0.40;0.40;;;13.80;99.90;;;;;;5073371;28;20576;-66
2022/09/04 04:17:48;;;;;;;0.50;0.50;;;13.90;99.90;;;;;;5063320;28;20422;-65
2022/09/04 04:20:44;;;;;;;0.50;0.50;;;14.10;99.90;;;;;;5055741;28;20677;-65
2022/09/04 04:23:55;;;;;;;0.40;0.40;;;14.20;99.90;;;;;;5073284;28;20434;-65
2022/09/04 04:26:57;;;;;;;0.40;0.40;;;14.20;99.90;;;;;;5072715;28;20439;-66
2022/09/04 04:30:02;;;;;;;0.40;0.40;;;14.30;99.90;;;;;;5073052;28;20431;-66
2022/09/04 04:33:07;;;;;;;0.60;0.60;;;14.30;99.90;;;;;;5072897;28;20936;-67
2022/09/04 04:36:02;;;;;;;0.50;0.50;;;14.30;99.90;;;;;;5072549;28;20447;-65
2022/09/04 04:39:04;;;;;;;0.40;0.40;;;14.30;99.90;;;;;;5073439;28;20427;-65
2022/09/04 04:42:05;;;;;;;0.50;0.50;;;14.30;99.90;;;;;;5077116;28;20636;-66
2022/09/04 04:48:43;;;;;;;0.50;0.50;;;14.20;99.90;;;;;;5076595;28;20426;-65
2022/09/04 04:51:47;;;;;;;0.50;0.50;;;14.20;99.90;;;;;;5088119;28;20192;-67
2022/09/04 04:54:52;;;;;;;0.40;0.40;;;14.10;99.90;;;;;;5098201;28;20696;-67
2022/09/04 04:57:52;;;;;;;0.40;0.40;;;14.10;99.90;;;;;;5096014;28;20214;-65
2022/09/04 05:00:47;;;;;;;0.40;0.40;;;14.20;99.90;;;;;;5096478;28;20207;-66
2022/09/04 05:03:52;;;;;;;0.50;0.50;;;14.20;99.90;;;;;;5098378;28;20471;-66
2022/09/04 05:06:47;;;;;;;0.40;0.40;;;14.20;99.90;;;;;;5096227;28;20696;-67
2022/09/04 05:09:44;;;;;;;0.40;0.40;;;14.20;99.90;;;;;;5096265;28;20200;-65
2022/09/04 05:12:53;;;;;;;0.47;0.47;;;14.20;99.90;;;;;;5096041;28;20200;-65
2022/09/04 05:15:52;;;;;;;0.50;0.50;;;14.30;99.90;;;;;;5097230;28;20226;-65
2022/09/04 05:19:01;;;;;;;0.50;0.50;;;14.40;99.90;;;;;;5096909;28;20581;-66
2022/09/04 05:21:55;;;;;;;0.40;0.40;;;14.50;99.90;;;;;;5096419;28;20196;-65
2022/09/04 05:24:54;;;;;;;0.40;0.40;;;14.60;99.90;;;;;;5095390;28;20419;-64
2022/09/04 05:27:54;;;;;;;0.50;0.50;;;14.60;99.90;;;;;;5097273;28;20581;-65
2022/09/04 05:30:49;;;;;;;0.40;0.40;;;14.70;99.90;;;;;;5097036;28;20204;-66
2022/09/04 05:33:49;;;;;;;0.40;0.40;;;14.70;99.90;;;;;;5097506;28;20220;-65
2022/09/04 05:36:46;;;;;;;0.40;0.40;;;14.70;99.90;;;;;;5097682;28;20220;-65
2022/09/04 05:39:44;;;;;;;0.40;0.40;;;14.80;99.90;;;;;;5095256;28;20204;-68
2022/09/04 05:42:44;;;;;;;0.80;0.80;;;14.80;99.90;;;;;;5097140;28;20434;-66
2022/09/04 05:45:48;;;;;;;0.40;0.40;;;14.90;99.90;;;;;;5096587;28;20215;-64
2022/09/04 05:48:45;;;;;;;0.40;0.40;;;14.90;99.90;;;;;;5096333;28;20199;-65
2022/09/04 05:52:14;;;;;;;0.40;0.40;;;14.90;99.90;;;;;;5095169;28;20445;-66
2022/09/04 05:55:17;;;;;;;0.40;0.40;;;14.90;99.90;;;;;;5095425;28;20710;-65
2022/09/04 05:58:25;;;;;;;1.50;1.03;;;15.00;99.90;;;;;;5095695;28;20200;-65
2022/09/04 06:01:25;;;;;;;0.40;0.40;;;15.10;99.90;;;;;;5095259;28;20208;-66
2022/09/04 06:04:46;;;;;;;0.40;0.40;;;15.10;99.90;;;;;;5096867;28;20273;-65
2022/09/04 06:07:42;;;;;;;0.50;0.50;;;15.20;99.90;;;;;;5069819;28;20199;-66
2022/09/04 06:10:42;;;;;;;0.40;0.40;;;15.20;99.90;;;;;;5097154;28;20203;-66
2022/09/04 06:13:54;;;;;;;0.40;0.40;;;15.20;99.90;;;;;;5098408;28;20207;-65
2022/09/04 06:17:00;;;;;;;0.40;0.40;;;15.30;99.90;;;;;;5070682;28;20588;-65
2022/09/04 06:20:07;;;;;;;0.50;0.50;;;15.30;99.90;;;;;;5096479;28;20200;-65
2022/09/04 06:23:08;;;;;;;0.40;0.40;;;15.40;99.90;;;;;;5096956;28;20199;-66
2022/09/04 06:26:14;;;;;;;0.40;0.40;;;15.30;99.90;;;;;;5096441;28;20300;-65
2022/09/04 06:29:25;;;;;;;0.50;0.50;;;15.30;99.90;;;;;;5098555;28;20278;-65
2022/09/04 06:32:26;;;;;;;0.40;0.40;;;15.40;99.90;;;;;;5095686;28;20204;-64
2022/09/04 06:35:31;;;;;;;0.40;0.40;;;15.50;99.90;;;;;;5095658;28;20223;-65
2022/09/04 06:38:33;;;;;;;0.40;0.40;;;15.50;99.90;;;;;;5095152;28;20629;-66
2022/09/04 06:41:47;;;;;;;0.40;0.40;;;15.70;99.90;;;;;;5094097;28;20198;-66
2022/09/04 06:44:48;;;;;;;0.50;0.50;;;15.90;99.90;;;;;;5093605;28;20692;-66
2022/09/04 06:47:49;;;;;;;0.40;0.40;;;16.10;99.90;;;;;;5094798;28;20572;-69
2022/09/04 06:50:52;;;;;;;0.50;0.50;;;16.20;99.90;;;;;;5091877;28;20196;-66
2022/09/04 06:53:52;;;;;;;0.40;0.40;;;16.30;99.90;;;;;;5093552;28;20191;-66
2022/09/04 06:57:01;;;;;;;0.50;0.50;;;16.40;99.90;;;;;;5092499;28;20281;-67
2022/09/04 07:00:02;;;;;;;0.40;0.40;;;16.40;99.90;;;;;;5092217;28;20192;-68
2022/09/04 07:03:08;;;;;;;0.40;0.40;;;16.40;99.90;;;;;;5093841;28;20568;-67
2022/09/04 07:06:04;;;;;;;0.40;0.40;;;16.40;99.90;;;;;;5091798;28;20224;-68
2022/09/04 07:09:03;;;;;;;0.40;0.40;;;16.50;99.90;;;;;;5093579;28;20200;-68
2022/09/04 07:12:10;;;;;;;0.40;0.40;;;16.50;99.90;;;;;;5093942;28;20266;-68
2022/09/04 07:15:49;;;;;;;0.50;0.50;;;16.50;99.90;;;;;;5093425;28;20262;-69
2022/09/04 07:18:53;;;;;;;0.40;0.40;;;16.60;99.90;;;;;;5092619;28;20196;-68
2022/09/04 07:21:54;;;;;;;0.40;0.40;;;16.60;99.90;;;;;;5092519;28;20249;-67
2022/09/04 07:25:03;;;;;;;0.50;0.50;;;16.70;99.90;;;;;;5092933;28;20257;-69
2022/09/04 07:28:13;;;;;;;0.40;0.40;;;16.70;99.90;;;;;;5092783;28;20200;-71
2022/09/04 07:31:08;;;;;;;0.40;0.40;;;16.90;99.90;;;;;;5092119;28;20199;-70
2022/09/04 07:34:03;;;;;;;0.50;0.50;;;16.90;99.90;;;;;;5092317;28;20203;-69
2022/09/04 07:36:58;;;;;;;0.40;0.40;;;16.90;99.90;;;;;;5090482;28;20252;-70
2022/09/04 07:39:53;;;;;;;0.40;0.40;;;17.10;99.90;;;;;;5092576;28;20196;-69
2022/09/04 07:42:48;;;;;;;0.50;0.50;;;17.00;99.90;;;;;;5092023;28;20196;-69
2022/09/04 07:45:38;;;;;;;0.40;0.40;;;17.10;99.90;;;;;;5092812;28;20220;-70
2022/09/04 07:48:31;;;;;;;0.40;0.40;;;17.10;99.90;;;;;;5091962;28;20203;-71
2022/09/04 07:51:24;;;;;;;0.40;0.40;;;17.30;99.90;;;;;;5091196;28;20490;-69
2022/09/04 07:54:40;;;;;;;0.40;0.40;;;17.50;99.90;;;;;;5091039;28;20676;-68
2022/09/04 07:57:52;;;;;;;0.40;0.40;;;17.80;99.90;;;;;;5091887;28;20696;-71
2022/09/04 08:00:56;;;;;;;0.40;0.40;;;18.10;99.90;;;;;;5089503;28;20223;-67
2022/09/04 08:03:59;;;;;;;0.40;0.40;;;18.30;99.90;;;;;;5090888;28;20210;-68
2022/09/04 08:06:56;;;;;;;0.68;0.68;;;18.70;99.90;;;;;;5090893;28;20223;-71
2022/09/04 08:10:06;;;;;;;0.40;0.40;;;19.00;99.90;;;;;;5090301;28;20200;-67
2022/09/04 08:13:12;;;;;;;0.40;0.40;;;19.20;99.90;;;;;;5092990;28;20200;-67
2022/09/04 08:16:06;;;;;;;0.40;0.40;;;19.50;99.90;;;;;;5094851;28;20230;-68
2022/09/04 08:19:14;;;;;;;0.50;0.50;;;19.70;99.90;;;;;;5094839;28;20280;-69
2022/09/04 08:22:04;;;;;;;0.40;0.40;;;19.90;99.90;;;;;;5095081;28;20203;-70
2022/09/04 08:25:07;;;;;;;0.40;0.40;;;20.10;99.90;;;;;;5095321;28;20245;-69
2022/09/04 08:28:10;;;;;;;0.40;0.40;;;20.30;99.90;;;;;;5094718;28;20238;-70
2022/09/04 08:31:07;;;;;;;0.40;0.40;;;20.40;99.90;;;;;;5095505;28;20200;-68
2022/09/04 08:34:31;;;;;;;0.40;0.40;;;20.40;99.90;;;;;;5094552;28;20208;-67
2022/09/04 08:37:25;;;;;;;0.40;0.40;;;20.40;99.90;;;;;;5094986;28;20216;-71
2022/09/04 08:40:56;;;;;;;0.40;0.40;;;20.20;99.90;;;;;;5094267;28;20207;-69
2022/09/04 08:44:08;;;;;;;0.40;0.40;;;20.10;99.90;;;;;;5013291;28;20198;-68
2022/09/04 08:47:28;;;;;;;0.40;0.40;;;19.90;99.90;;;;;;5088344;28;20265;-70
2022/09/04 08:50:45;;;;;;;0.40;0.40;;;19.80;99.90;;;;;;5093581;28;20203;-69
2022/09/04 08:54:01;;;;;;;0.40;0.40;;;19.70;99.90;;;;;;5094079;28;20200;-66
2022/09/04 08:57:14;;;;;;;0.40;0.40;;;19.60;99.90;;;;;;5094864;28;20223;-68
2022/09/04 09:00:09;;;;;;;0.40;0.40;;;19.60;99.90;;;;;;5094790;28;20203;-69
2022/09/04 09:03:34;;;;;;;0.40;0.40;;;19.70;99.90;;;;;;5094222;28;20673;-69
2022/09/04 09:07:12;;;;;;;0.40;0.40;;;19.70;99.90;;;;;;5039173;28;20224;-69
2022/09/04 09:10:29;;;;;;;0.40;0.40;;;19.70;99.90;;;;;;5045946;28;20207;-71
2022/09/04 09:13:50;;;;;;;0.40;0.40;;;19.60;99.90;;;;;;5094483;28;20672;-67
2022/09/04 09:16:43;;;;;;;0.40;0.40;;;19.60;99.90;;;;;;5094143;28;20234;-67
2022/09/04 09:19:44;;;;;;;0.40;0.40;;;19.60;99.90;;;;;;5092267;28;20330;-67
2022/09/04 09:23:11;;;;;;;0.40;0.40;;;19.60;99.90;;;;;;5094001;28;20210;-69
2022/09/04 09:26:25;;;;;;;0.40;0.40;;;19.70;99.90;;;;;;5093908;28;20710;-69
2022/09/04 09:29:50;;;;;;;0.40;0.40;;;19.80;99.90;;;;;;5093805;28;20195;-68
2022/09/04 09:33:08;;;;;;;0.50;0.50;;;19.90;99.90;;;;;;5086306;28;20207;-72
2022/09/04 09:36:24;;;;;;;0.40;0.40;;;20.00;99.90;;;;;;5094311;28;20227;-69
2022/09/04 09:39:36;;;;;;;0.40;0.40;;;20.10;99.90;;;;;;5094606;28;20742;-70
2022/09/04 09:43:12;;;;;;;0.40;0.40;;;20.20;99.90;;;;;;5094538;28;20290;-71
2022/09/04 09:46:37;;;;;;;0.40;0.40;;;20.20;99.90;;;;;;5094228;28;20294;-69
2022/09/04 09:49:58;;;;;;;0.40;0.40;;;20.40;99.90;;;;;;5094606;28;20211;-71
2022/09/04 09:53:21;;;;;;;0.40;0.40;;;20.50;99.90;;;;;;5074014;28;20204;-70
2022/09/04 09:56:41;;;;;;;0.40;0.40;;;20.60;99.90;;;;;;5072447;28;20316;-71
2022/09/04 09:59:51;;;;;;;0.40;0.40;;;20.60;99.90;;;;;;5072244;28;20197;-70
2022/09/04 10:03:24;;;;;;;0.57;0.57;;;20.60;99.90;;;;;;5073036;28;20284;-68
2022/09/04 10:06:31;;;;;;;0.40;0.40;;;20.70;99.90;;;;;;5071978;28;20290;-71
2022/09/04 10:09:47;;;;;;;0.50;0.50;;;20.80;99.90;;;;;;5072856;28;20255;-68
2022/09/04 10:13:00;;;;;;;0.60;0.60;;;20.90;99.70;;;;;;5072927;28;20204;-68
2022/09/04 10:16:11;;;;;;;0.40;0.40;;;21.00;99.70;;;;;;5070853;28;20235;-71
2022/09/04 10:19:17;;;;;;;0.40;0.40;;;21.10;99.60;;;;;;5072162;28;20201;-72
2022/09/04 10:22:44;;;;;;;0.40;0.40;;;21.20;99.30;;;;;;5072879;28;20201;-72
2022/09/04 10:26:16;;;;;;;0.40;0.40;;;21.30;99.10;;;;;;5071983;28;20282;-68
2022/09/04 10:29:25;;;;;;;0.40;0.40;;;21.30;98.70;;;;;;5010054;28;20676;-65
2022/09/04 10:32:54;;;;;;;0.40;0.40;;;21.30;98.50;;;;;;5009549;28;20230;-68
2022/09/04 10:35:55;;;;;;;0.70;0.70;;;21.30;98.20;;;;;;4989346;28;20226;-67
2022/09/04 10:42:05;;;;;;;0.40;0.40;;;21.50;96.40;;;;;;5072618;28;20197;-67
2022/09/04 10:45:06;;;;;;;0.40;0.40;;;21.50;95.50;;;;;;5071827;28;20201;-70
2022/09/04 10:48:14;;;;;;;0.40;0.40;;;21.60;95.30;;;;;;5071695;28;20228;-69
2022/09/04 10:51:27;;;;;;;0.40;0.40;;;21.70;95.50;;;;;;5079095;28;20235;-67
2022/09/04 10:54:43;;;;;;;0.47;0.47;;;21.90;94.50;;;;;;5092359;28;20278;-68
2022/09/04 10:57:58;;;;;;;0.40;0.40;;;21.90;94.60;;;;;;5092510;28;20758;-68
2022/09/04 11:01:02;;;;;;;0.40;0.40;;;22.00;94.20;;;;;;5092596;28;20626;-66
2022/09/04 11:04:15;;;;;;;0.40;0.40;;;22.10;93.90;;;;;;5092847;28;20270;-66
2022/09/04 11:07:23;;;;;;;0.40;0.40;;;22.20;93.80;;;;;;5092011;28;20325;-67
2022/09/04 11:10:31;;;;;;;0.40;0.40;;;22.30;93.40;;;;;;5092821;28;20258;-65
2022/09/04 11:13:55;;;;;;;0.57;0.57;;;22.40;93.80;;;;;;5094722;28;20203;-66
2022/09/04 11:17:08;;;;;;;0.40;0.40;;;22.40;92.90;;;;;;5094295;28;20219;-66
2022/09/04 11:20:38;;;;;;;0.40;0.40;;;22.50;92.90;;;;;;5093983;28;20200;-65
2022/09/04 11:24:12;;;;;;;0.40;0.40;;;22.50;92.70;;;;;;5073406;28;20325;-70
2022/09/04 11:27:46;;;;;;;0.40;0.40;;;22.50;92.60;;;;;;5094032;28;20211;-65
2022/09/04 11:30:58;;;;;;;0.40;0.40;;;22.60;92.10;;;;;;5096825;28;20676;-66
2022/09/04 11:34:31;;;;;;;0.40;0.40;;;22.60;92.30;;;;;;5095323;28;20196;-69
2022/09/04 11:37:47;;;;;;;0.40;0.40;;;22.70;92.10;;;;;;5095674;28;20243;-69
2022/09/04 11:41:04;;;;;;;0.40;0.40;;;22.70;91.80;;;;;;5094583;28;20208;-65
2022/09/04 11:44:24;;;;;;;0.40;0.40;;;22.70;92.00;;;;;;5094385;28;20568;-64
2022/09/04 11:47:33;;;;;;;0.40;0.40;;;22.80;91.80;;;;;;5094406;28;20220;-66
2022/09/04 11:50:39;;;;;;;0.40;0.40;;;22.80;91.10;;;;;;5092923;28;20574;-65
2022/09/04 11:53:46;;;;;;;0.40;0.40;;;22.70;91.00;;;;;;5093455;28;20204;-67
2022/09/04 11:57:03;;;;;;;0.40;0.40;;;22.70;90.90;;;;;;5093843;28;20230;-68
2022/09/04 12:00:05;;;;;;;0.50;0.50;;;22.70;91.00;;;;;;5093683;28;20230;-68
2022/09/04 12:03:21;;;;;;;0.40;0.40;;;22.80;90.90;;;;;;5093003;28;20199;-67
2022/09/04 12:06:19;;;;;;;1.27;1.20;;;22.90;91.50;;;;;;5091463;28;20215;-66
2022/09/04 12:09:27;;;;;;;0.40;0.40;;;22.90;90.40;;;;;;5092946;28;20211;-69
2022/09/04 12:12:49;;;;;;;0.40;0.40;;;23.00;90.50;;;;;;5082042;22;20229;-71
2022/09/04 12:16:23;;;;;;;0.68;0.68;;;23.00;90.40;;;;;;5048526;28;20208;-70
2022/09/04 12:19:49;;;;;;;0.40;0.40;;;23.10;90.50;;;;;;5052000;28;20197;-70
2022/09/04 12:23:17;;;;;;;0.40;0.40;;;23.10;90.20;;;;;;5033628;28;20198;-70
2022/09/04 12:26:34;;;;;;;0.40;0.40;;;23.20;89.80;;;;;;5032924;28;20273;-70
2022/09/04 12:29:49;;;;;;;0.40;0.40;;;23.30;89.90;;;;;;5032320;28;20643;-70
2022/09/04 12:33:02;;;;;;;0.50;0.50;;;23.40;88.70;;;;;;5033590;28;20702;-70
2022/09/04 12:36:35;;;;;;;0.40;0.40;;;23.40;87.50;;;;;;5033557;28;20209;-70
2022/09/04 12:39:56;;;;;;;0.40;0.40;;;23.50;88.60;;;;;;5033044;28;20268;-70
2022/09/04 12:42:54;;;;;;;0.40;0.40;;;23.60;88.90;;;;;;5033084;28;20601;-69
2022/09/04 12:45:52;;;;;;;0.40;0.40;;;23.60;88.30;;;;;;5034354;28;20674;-69
2022/09/04 12:48:56;;;;;;;0.77;0.77;;;23.60;87.60;;;;;;5034854;28;20202;-69
2022/09/04 12:51:50;;;;;;;0.40;0.40;;;23.70;87.40;;;;;;5035469;28;20269;-69
2022/09/04 12:54:50;;;;;;;0.40;0.40;;;23.90;88.10;;;;;;5034354;28;20261;-69
2022/09/04 12:57:48;;;;;;;0.40;0.40;;;24.20;86.40;;;;;;5032460;28;20221;-69
2022/09/04 13:00:43;;;;;;;0.40;0.40;;;25.30;84.60;;;;;;5035448;28;20291;-69
2022/09/04 13:03:47;;;;;;;0.50;0.50;;;26.70;81.80;;;;;;5038674;28;20618;-70
2022/09/04 13:06:42;;;;;;;0.40;0.40;;;28.00;77.40;;;;;;5037468;28;20228;-70
2022/09/04 13:09:41;;;;;;;0.40;0.40;;;29.50;73.90;;;;;;5037281;28;20205;-70
2022/09/04 13:12:49;;;;;;;0.40;0.40;;;31.20;68.20;;;;;;5040046;28;20202;-70
2022/09/04 13:15:49;;;;;;;0.40;0.40;;;32.40;65.00;;;;;;5038797;28;20700;-70
2022/09/04 13:18:48;;;;;;;0.70;0.70;;;33.90;60.90;;;;;;5037267;28;20267;-71
2022/09/04 13:21:54;;;;;;;0.40;0.40;;;35.30;56.10;;;;;;5039462;28;20594;-70
2022/09/04 13:24:55;;;;;;;0.40;0.40;;;35.80;55.70;;;;;;5040636;28;20206;-69
2022/09/04 13:27:56;;;;;;;0.55;0.55;;;36.60;52.90;;;;;;5036523;28;20674;-70
2022/09/04 13:30:58;;;;;;;0.40;0.40;;;38.10;49.20;;;;;;5033718;28;20222;-70
2022/09/04 13:33:57;;;;;;;0.40;0.40;;;38.20;49.10;;;;;;5033652;28;20205;-69
2022/09/04 13:36:57;;;;;;;0.40;0.40;;;38.30;47.30;;;;;;5033989;28;20198;-69
2022/09/04 13:40:13;;;;;;;0.40;0.40;;;38.10;46.80;;;;;;5033360;28;20198;-69
2022/09/04 13:43:32;;;;;;;0.40;0.40;;;38.80;45.70;;;;;;5032742;28;20202;-70
2022/09/04 13:46:27;;;;;;;0.40;0.40;;;39.30;44.80;;;;;;5014069;28;20680;-71
2022/09/04 13:49:25;;;;;;;0.40;0.40;;;39.20;44.60;;;;;;5032268;28;20194;-71
2022/09/04 13:52:18;;;;;;;0.40;0.40;;;39.30;43.50;;;;;;5015928;28;20226;-70
2022/09/04 13:55:11;;;;;;;0.50;0.50;;;39.00;43.90;;;;;;5014749;28;20234;-70
2022/09/04 13:58:09;;;;;;;0.40;0.40;;;38.60;43.50;;;;;;5012927;28;20230;-71
2022/09/04 14:01:00;;;;;;;0.40;0.40;;;39.40;41.90;;;;;;5013702;28;20412;-70
2022/09/04 14:03:52;;;;;;;0.40;0.40;;;39.60;42.30;;;;;;5013990;28;20249;-69
2022/09/04 14:06:43;;;;;;;0.40;0.40;;;39.70;42.10;;;;;;5013075;28;20202;-71
2022/09/04 14:09:36;;;;;;;0.40;0.40;;;39.50;42.30;;;;;;5012675;28;20222;-70
2022/09/04 14:12:48;;;;;;;0.40;0.40;;;39.60;40.90;;;;;;5012645;28;20293;-71
2022/09/04 14:16:01;;;;;;;0.40;0.40;;;39.50;41.20;;;;;;5013950;28;20210;-72
2022/09/04 14:19:14;;;;;;;0.40;0.40;;;39.30;41.00;;;;;;5013657;28;20202;-71
2022/09/04 14:22:20;;;;;;;0.40;0.40;;;39.10;40.70;;;;;;5012564;28;20305;-68
2022/09/04 14:25:16;;;;;;;0.40;0.40;;;39.00;41.30;;;;;;5013479;28;20194;-71
2022/09/04 14:28:12;;;;;;;0.40;0.40;;;38.20;41.30;;;;;;5014893;28;20222;-72
2022/09/04 14:31:07;;;;;;;0.40;0.40;;;35.80;43.30;;;;;;5019901;28;20699;-70
2022/09/04 14:34:06;;;;;;;0.60;0.60;;;35.50;44.10;;;;;;5015010;28;20206;-70
2022/09/04 14:37:03;;;;;;;0.40;0.40;;;35.20;45.30;;;;;;5015465;28;20214;-70
2022/09/04 14:40:03;;;;;;;0.40;0.40;;;34.90;45.50;;;;;;5013458;28;20342;-73
2022/09/04 14:42:57;;;;;;;0.40;0.40;;;34.90;44.40;;;;;;5014550;28;20194;-69
2022/09/04 14:46:08;;;;;;;0.40;0.40;;;35.00;45.20;;;;;;5012855;28;20230;-70
2022/09/04 14:49:04;;;;;;;0.40;0.40;;;34.50;45.50;;;;;;5014007;28;20291;-70
2022/09/04 14:51:55;;;;;;;0.40;0.40;;;33.00;47.70;;;;;;5029890;28;20221;-70
2022/09/04 14:54:45;;;;;;;0.40;0.40;;;32.00;48.30;;;;;;5033069;28;20194;-69
2022/09/04 14:57:40;;;;;;;0.40;0.40;;;31.50;49.30;;;;;;5032835;28;20631;-69
2022/09/04 15:00:32;;;;;;;0.40;0.40;;;31.60;49.90;;;;;;5032486;28;20579;-69
2022/09/04 15:03:27;;;;;;;0.40;0.40;;;31.80;49.30;;;;;;5033389;28;20224;-70
2022/09/04 15:06:17;;;;;;;0.40;0.40;;;32.00;49.20;;;;;;5031909;28;20202;-70
2022/09/04 15:09:20;;;;;;;0.40;0.40;;;32.10;50.10;;;;;;5032114;28;20292;-71
2022/09/04 15:12:18;;;;;;;0.40;0.40;;;32.10;49.40;;;;;;5032983;28;20233;-70
2022/09/04 15:15:21;;;;;;;0.40;0.40;;;32.50;49.10;;;;;;5031598;28;20206;-70
2022/09/04 15:18:14;;;;;;;0.40;0.40;;;31.30;47.80;;;;;;5032672;28;20245;-71
2022/09/04 15:21:11;;;;;;;0.40;0.40;;;32.30;48.70;;;;;;5031702;28;20252;-69
2022/09/04 15:24:15;;;;;;;0.40;0.40;;;32.10;49.30;;;;;;5011959;28;20691;-70
2022/09/04 15:27:15;;;;;;;0.40;0.40;;;31.90;49.30;;;;;;5012651;28;20214;-71
2022/09/04 15:30:06;;;;;;;0.40;0.40;;;31.90;49.50;;;;;;5027879;28;20229;-70
2022/09/04 15:33:06;;;;;;;0.40;0.40;;;31.90;49.30;;;;;;5033214;28;20201;-70
2022/09/04 15:36:03;;;;;;;0.40;0.40;;;32.00;49.50;;;;;;5026613;28;20202;-70
2022/09/04 15:38:55;;;;;;;0.40;0.40;;;32.50;48.20;;;;;;5032353;28;20198;-70
2022/09/04 15:41:47;;;;;;;0.40;0.40;;;32.50;48.00;;;;;;5032527;28;20222;-71
2022/09/04 15:44:42;;;;;;;0.40;0.40;;;32.30;48.70;;;;;;5032852;28;20690;-70
2022/09/04 15:47:46;;;;;;;0.40;0.40;;;31.50;49.20;;;;;;5033986;28;20221;-70
2022/09/04 15:50:40;;;;;;;0.40;0.40;;;30.60;50.20;;;;;;5033034;28;20233;-70
2022/09/04 15:53:32;;;;;;;1.58;1.58;;;29.70;51.60;;;;;;5031956;28;20225;-70
2022/09/04 15:56:34;;;;;;;0.40;0.40;;;29.10;52.70;;;;;;5032354;28;20202;-70
2022/09/04 15:59:26;;;;;;;0.40;0.40;;;28.60;53.60;;;;;;5031971;28;20209;-69
2022/09/04 16:02:34;;;;;;;0.40;0.40;;;28.40;54.10;;;;;;5030776;28;20225;-70
2022/09/04 16:05:32;;;;;;;0.40;0.40;;;28.30;53.60;;;;;;5031559;28;20299;-70
2022/09/04 16:08:28;;;;;;;0.40;0.40;;;28.20;54.00;;;;;;5031950;28;20214;-69